createdAt,value
2018-05-02T00:00:47.223Z,1008.32
2018-05-02T00:01:47.240Z,1008.29
2018-05-02T00:03:40.380Z,1008.31
2018-05-02T00:04:40.379Z,1008.33
2018-05-02T00:06:33.272Z,1008.29
2018-05-02T00:07:33.289Z,1008.32
2018-05-02T00:09:26.396Z,1008.35
2018-05-02T00:10:26.388Z,1008.34
2018-05-02T00:12:19.303Z,1008.28
2018-05-02T00:13:19.300Z,1008.27
2018-05-02T00:15:12.194Z,1008.33
2018-05-02T00:16:12.210Z,1008.32
2018-05-02T00:18:05.262Z,1008.33
2018-05-02T00:19:05.253Z,1008.32
2018-05-02T00:20:58.152Z,1008.29
2018-05-02T00:21:58.168Z,1008.29
2018-05-02T00:23:51.080Z,1008.30
2018-05-02T00:24:51.077Z,1008.28
2018-05-02T00:26:44.202Z,1008.30
2018-05-02T00:27:44.219Z,1008.27
2018-05-02T00:29:37.132Z,1008.29
2018-05-02T00:30:37.128Z,1008.27
2018-05-02T00:32:30.042Z,1008.28
2018-05-02T00:33:30.041Z,1008.29
2018-05-02T00:35:22.935Z,1008.30
2018-05-02T00:36:22.950Z,1008.32
2018-05-02T00:38:15.861Z,1008.30
2018-05-02T00:39:15.858Z,1008.28
2018-05-02T00:41:08.752Z,1008.28
2018-05-02T00:42:08.769Z,1008.28
2018-05-02T00:44:01.684Z,1008.28
2018-05-02T00:45:01.687Z,1008.29
2018-05-02T00:46:54.575Z,1008.27
2018-05-02T00:47:54.590Z,1008.23
2018-05-02T00:49:47.508Z,1008.22
2018-05-02T00:50:47.507Z,1008.18
2018-05-02T00:52:40.599Z,1008.21
2018-05-02T00:53:40.596Z,1008.18
2018-05-02T00:55:33.495Z,1008.19
2018-05-02T00:56:33.515Z,1008.26
2018-05-02T00:58:26.423Z,1008.29
2018-05-02T00:59:26.425Z,1008.33
2018-05-02T01:01:19.316Z,1008.26
2018-05-02T01:02:19.330Z,1008.26
2018-05-02T01:04:12.244Z,1008.33
2018-05-02T01:05:12.243Z,1008.32
2018-05-02T01:07:05.142Z,1008.36
2018-05-02T01:08:05.159Z,1008.36
2018-05-02T01:09:58.070Z,1008.38
2018-05-02T01:10:58.065Z,1008.36
2018-05-02T01:12:50.981Z,1008.36
2018-05-02T01:13:50.980Z,1008.38
2018-05-02T01:15:43.871Z,1008.32
2018-05-02T01:16:43.888Z,1008.31
2018-05-02T01:18:36.801Z,1008.32
2018-05-02T01:19:36.797Z,1008.33
2018-05-02T01:21:29.693Z,1008.33
2018-05-02T01:22:29.709Z,1008.35
2018-05-02T01:24:22.781Z,1008.36
2018-05-02T01:25:22.778Z,1008.41
2018-05-02T01:27:15.678Z,1008.38
2018-05-02T01:28:15.693Z,1008.38
2018-05-02T01:30:08.798Z,1008.45
2018-05-02T01:31:08.800Z,1008.48
2018-05-02T01:33:01.721Z,1008.49
2018-05-02T01:34:01.708Z,1008.52
2018-05-02T01:35:54.606Z,1008.47
2018-05-02T01:36:54.618Z,1008.51
2018-05-02T01:38:47.529Z,1008.49
2018-05-02T01:39:47.527Z,1008.53
2018-05-02T01:41:40.589Z,1008.55
2018-05-02T01:42:40.604Z,1008.57
2018-05-02T01:44:33.667Z,1008.56
2018-05-02T01:45:33.660Z,1008.53
2018-05-02T01:47:26.557Z,1008.51
2018-05-02T01:48:26.571Z,1008.46
2018-05-02T01:50:19.482Z,1008.48
2018-05-02T01:51:19.478Z,1008.50
2018-05-02T01:53:12.402Z,1008.45
2018-05-02T01:54:12.404Z,1008.48
2018-05-02T01:56:05.293Z,1008.49
2018-05-02T01:57:05.313Z,1008.48
2018-05-02T01:58:58.221Z,1008.50
2018-05-02T01:59:58.219Z,1008.51
2018-05-02T02:01:51.116Z,1008.45
2018-05-02T02:02:51.202Z,1008.43
2018-05-02T02:04:44.232Z,1008.39
2018-05-02T02:05:44.233Z,1008.36
2018-05-02T02:07:37.270Z,1008.32
2018-05-02T02:08:37.286Z,1008.38
2018-05-02T02:10:30.198Z,1008.29
2018-05-02T02:11:30.195Z,1008.27
2018-05-02T02:13:23.304Z,1008.23
2018-05-02T02:14:23.301Z,1008.27
2018-05-02T02:16:16.203Z,1008.19
2018-05-02T02:17:16.217Z,1008.22
2018-05-02T02:19:16.418Z,1008.21
2018-05-02T02:20:09.121Z,1008.21
2018-05-02T02:22:02.249Z,1008.15
2018-05-02T02:23:02.264Z,1008.19
2018-05-02T02:24:55.325Z,1008.16
2018-05-02T02:25:55.320Z,1008.16
2018-05-02T02:27:48.361Z,1008.15
2018-05-02T02:28:48.380Z,1008.12
2018-05-02T02:30:41.288Z,1008.10
2018-05-02T02:31:41.286Z,1008.11
2018-05-02T02:33:34.199Z,1008.16
2018-05-02T02:34:34.201Z,1008.15
2018-05-02T02:36:27.223Z,1008.15
2018-05-02T02:37:27.238Z,1008.13
2018-05-02T02:39:20.152Z,1008.17
2018-05-02T02:40:20.150Z,1008.15
2018-05-02T02:42:13.044Z,1008.14
2018-05-02T02:43:13.062Z,1008.13
2018-05-02T02:45:05.977Z,1008.17
2018-05-02T02:46:05.974Z,1008.16
2018-05-02T02:47:58.868Z,1008.15
2018-05-02T02:48:58.883Z,1008.15
2018-05-02T02:50:51.797Z,1008.15
2018-05-02T02:51:51.794Z,1008.16
2018-05-02T02:53:44.707Z,1008.16
2018-05-02T02:54:44.701Z,1008.15
2018-05-02T02:56:37.796Z,1008.16
2018-05-02T02:57:37.811Z,1008.16
2018-05-02T02:59:30.873Z,1008.17
2018-05-02T03:00:30.868Z,1008.18
2018-05-02T03:02:23.762Z,1008.14
2018-05-02T03:03:23.781Z,1008.11
2018-05-02T03:05:16.888Z,1008.14
2018-05-02T03:06:16.877Z,1008.14
2018-05-02T03:08:09.769Z,1008.13
2018-05-02T03:09:09.782Z,1008.14
2018-05-02T03:11:03.188Z,1008.13
2018-05-02T03:12:03.186Z,1008.13
2018-05-02T03:13:56.255Z,1008.13
2018-05-02T03:14:56.249Z,1008.06
2018-05-02T03:16:49.144Z,1008.07
2018-05-02T03:17:49.158Z,1008.06
2018-05-02T03:19:42.069Z,1008.04
2018-05-02T03:20:42.067Z,1008.06
2018-05-02T03:22:34.960Z,1008.01
2018-05-02T03:23:34.974Z,1008.05
2018-05-02T03:25:27.881Z,1008.04
2018-05-02T03:26:27.880Z,1008.03
2018-05-02T03:28:20.777Z,1008.01
2018-05-02T03:29:20.795Z,1008.01
2018-05-02T03:31:13.705Z,1008.02
2018-05-02T03:32:13.699Z,1008.00
2018-05-02T03:34:06.609Z,1007.97
2018-05-02T03:35:06.608Z,1007.98
2018-05-02T03:36:59.659Z,1007.96
2018-05-02T03:37:59.678Z,1007.99
2018-05-02T03:39:52.590Z,1007.93
2018-05-02T03:40:52.588Z,1007.95
2018-05-02T03:42:45.478Z,1007.96
2018-05-02T03:43:45.494Z,1007.95
2018-05-02T03:45:38.403Z,1007.93
2018-05-02T03:46:38.400Z,1007.93
2018-05-02T03:48:31.293Z,1007.92
2018-05-02T03:49:31.309Z,1007.98
2018-05-02T03:51:24.222Z,1007.99
2018-05-02T03:52:24.218Z,1007.95
2018-05-02T03:54:17.295Z,1007.97
2018-05-02T03:55:17.290Z,1007.99
2018-05-02T03:57:10.333Z,1008.00
2018-05-02T03:58:10.348Z,1008.00
2018-05-02T04:00:03.406Z,1008.03
2018-05-02T04:01:03.405Z,1008.02
2018-05-02T04:02:56.447Z,1008.00
2018-05-02T04:03:56.462Z,1008.01
2018-05-02T04:05:49.375Z,1008.00
2018-05-02T04:06:49.371Z,1007.99
2018-05-02T04:08:42.456Z,1008.00
2018-05-02T04:09:42.474Z,1007.99
2018-05-02T04:11:35.533Z,1008.00
2018-05-02T04:12:35.529Z,1008.00
2018-05-02T04:14:28.441Z,1008.02
2018-05-02T04:15:28.439Z,1008.01
2018-05-02T04:17:21.334Z,1007.99
2018-05-02T04:18:21.352Z,1008.01
2018-05-02T04:20:14.287Z,1008.02
2018-05-02T04:21:14.283Z,1008.03
2018-05-02T04:23:07.174Z,1008.09
2018-05-02T04:24:07.190Z,1008.11
2018-05-02T04:26:00.151Z,1008.13
2018-05-02T04:27:00.103Z,1008.12
2018-05-02T04:28:52.989Z,1008.10
2018-05-02T04:29:53.006Z,1008.07
2018-05-02T04:31:45.918Z,1008.09
2018-05-02T04:32:45.916Z,1008.12
2018-05-02T04:34:38.837Z,1008.14
2018-05-02T04:35:38.832Z,1008.14
2018-05-02T04:37:31.727Z,1008.15
2018-05-02T04:38:31.754Z,1008.18
2018-05-02T04:40:24.659Z,1008.15
2018-05-02T04:41:24.656Z,1008.15
2018-05-02T04:43:17.554Z,1008.17
2018-05-02T04:44:17.568Z,1008.17
2018-05-02T04:46:10.670Z,1008.22
2018-05-02T04:47:10.678Z,1008.23
2018-05-02T04:49:03.565Z,1008.28
2018-05-02T04:50:03.581Z,1008.31
2018-05-02T04:51:56.497Z,1008.31
2018-05-02T04:52:56.491Z,1008.39
2018-05-02T04:54:49.409Z,1008.38
2018-05-02T04:55:49.405Z,1008.42
2018-05-02T04:57:42.303Z,1008.47
2018-05-02T04:58:42.320Z,1008.48
2018-05-02T05:00:35.233Z,1008.55
2018-05-02T05:01:35.233Z,1008.57
2018-05-02T05:03:28.128Z,1008.54
2018-05-02T05:04:28.143Z,1008.53
2018-05-02T05:06:21.056Z,1008.54
2018-05-02T05:07:21.054Z,1008.55
2018-05-02T05:09:13.954Z,1008.56
2018-05-02T05:10:13.969Z,1008.54
2018-05-02T05:12:06.884Z,1008.52
2018-05-02T05:13:06.882Z,1008.50
2018-05-02T05:14:59.795Z,1008.47
2018-05-02T05:16:00.021Z,1008.49
2018-05-02T05:17:52.696Z,1008.55
2018-05-02T05:18:52.713Z,1008.57
2018-05-02T05:20:45.626Z,1008.61
2018-05-02T05:21:45.624Z,1008.64
2018-05-02T05:23:41.326Z,1008.56
2018-05-02T05:24:43.450Z,1008.58
2018-05-02T05:26:36.666Z,1008.60
2018-05-02T05:27:36.665Z,1008.63
2018-05-02T05:29:30.492Z,1008.61
2018-05-02T05:30:29.700Z,1008.65
2018-05-02T05:32:23.204Z,1008.61
2018-05-02T05:33:22.621Z,1008.60
2018-05-02T05:35:15.645Z,1008.59
2018-05-02T05:36:15.546Z,1008.61
2018-05-02T05:38:08.425Z,1008.62
2018-05-02T05:39:09.024Z,1008.59
2018-05-02T05:41:02.258Z,1008.58
2018-05-02T05:42:02.259Z,1008.55
2018-05-02T05:43:55.282Z,1008.60
2018-05-02T05:44:55.775Z,1008.61
2018-05-02T05:46:48.276Z,1008.62
2018-05-02T05:47:48.205Z,1008.60
2018-05-02T05:50:42.805Z,1008.59
2018-05-02T05:52:35.344Z,1008.58
2018-05-02T05:53:35.344Z,1008.56
2018-05-02T05:55:28.356Z,1008.57
2018-05-02T05:56:28.257Z,1008.53
2018-05-02T05:58:21.153Z,1008.54
2018-05-02T05:59:21.169Z,1008.52
2018-05-02T06:01:14.085Z,1008.59
2018-05-02T06:02:14.085Z,1008.54
2018-05-02T06:04:06.981Z,1008.60
2018-05-02T06:05:07.084Z,1008.60
2018-05-02T06:06:59.915Z,1008.62
2018-05-02T06:07:59.915Z,1008.65
2018-05-02T06:09:52.831Z,1008.66
2018-05-02T06:10:53.131Z,1008.68
2018-05-02T06:12:45.822Z,1008.69
2018-05-02T06:13:45.774Z,1008.66
2018-05-02T06:15:38.700Z,1008.63
2018-05-02T06:16:38.699Z,1008.65
2018-05-02T06:18:31.607Z,1008.63
2018-05-02T06:19:31.628Z,1008.65
2018-05-02T06:21:24.550Z,1008.66
2018-05-02T06:22:24.555Z,1008.67
2018-05-02T06:24:17.466Z,1008.66
2018-05-02T06:25:17.483Z,1008.69
2018-05-02T06:27:10.414Z,1008.71
2018-05-02T06:28:10.419Z,1008.69
2018-05-02T06:30:03.326Z,1008.75
2018-05-02T06:31:03.349Z,1008.78
2018-05-02T06:32:56.282Z,1008.77
2018-05-02T06:33:56.285Z,1008.80
2018-05-02T06:35:49.214Z,1008.76
2018-05-02T06:36:49.221Z,1008.80
2018-05-02T06:38:42.134Z,1008.78
2018-05-02T06:39:42.156Z,1008.77
2018-05-02T06:41:35.090Z,1008.71
2018-05-02T06:42:35.105Z,1008.73
2018-05-02T06:44:28.016Z,1008.73
2018-05-02T06:45:28.041Z,1008.74
2018-05-02T06:47:20.977Z,1008.71
2018-05-02T06:48:20.980Z,1008.73
2018-05-02T06:50:13.906Z,1008.72
2018-05-02T06:51:13.926Z,1008.69
2018-05-02T06:53:06.992Z,1008.71
2018-05-02T06:54:07.000Z,1008.70
2018-05-02T06:55:59.938Z,1008.71
2018-05-02T06:56:59.949Z,1008.69
2018-05-02T06:58:52.865Z,1008.65
2018-05-02T06:59:52.893Z,1008.65
2018-05-02T07:01:45.829Z,1008.62
2018-05-02T07:02:45.845Z,1008.62
2018-05-02T07:04:38.763Z,1008.61
2018-05-02T07:05:38.787Z,1008.64
2018-05-02T07:07:31.722Z,1008.58
2018-05-02T07:08:31.735Z,1008.57
2018-05-02T07:10:24.646Z,1008.53
2018-05-02T07:11:24.673Z,1008.57
2018-05-02T07:13:17.732Z,1008.51
2018-05-02T07:14:17.738Z,1008.51
2018-05-02T07:16:10.672Z,1008.51
2018-05-02T07:17:10.678Z,1008.53
2018-05-02T07:19:03.707Z,1008.47
2018-05-02T07:20:03.735Z,1008.43
2018-05-02T07:21:56.660Z,1008.42
2018-05-02T07:22:56.671Z,1008.46
2018-05-02T07:24:49.578Z,1008.45
2018-05-02T07:25:49.606Z,1008.46
2018-05-02T07:27:42.535Z,1008.42
2018-05-02T07:28:42.544Z,1008.43
2018-05-02T07:30:35.474Z,1008.38
2018-05-02T07:31:35.481Z,1008.41
2018-05-02T07:33:28.402Z,1008.40
2018-05-02T07:34:28.407Z,1008.43
2018-05-02T07:36:21.339Z,1008.45
2018-05-02T07:37:21.339Z,1008.42
2018-05-02T07:39:14.247Z,1008.42
2018-05-02T07:40:14.271Z,1008.41
2018-05-02T07:42:07.278Z,1008.47
2018-05-02T07:43:07.200Z,1008.50
2018-05-02T07:45:00.113Z,1008.49
2018-05-02T07:46:00.135Z,1008.51
2018-05-02T07:47:53.062Z,1008.49
2018-05-02T07:48:53.064Z,1008.46
2018-05-02T07:50:45.970Z,1008.48
2018-05-02T07:51:45.992Z,1008.49
2018-05-02T07:53:38.920Z,1008.54
2018-05-02T07:54:38.925Z,1008.56
2018-05-02T07:56:31.985Z,1008.54
2018-05-02T07:57:31.897Z,1008.54
2018-05-02T07:59:24.807Z,1008.57
2018-05-02T08:00:24.830Z,1008.57
2018-05-02T08:02:17.757Z,1008.52
2018-05-02T08:03:17.761Z,1008.58
2018-05-02T08:05:10.671Z,1008.60
2018-05-02T08:06:10.707Z,1008.58
2018-05-02T08:08:03.628Z,1008.60
2018-05-02T08:09:03.624Z,1008.56
2018-05-02T08:10:56.595Z,1008.61
2018-05-02T08:11:56.559Z,1008.59
2018-05-02T08:13:49.483Z,1008.55
2018-05-02T08:14:49.488Z,1008.55
2018-05-02T08:16:42.414Z,1008.58
2018-05-02T08:17:42.417Z,1008.48
2018-05-02T08:19:35.329Z,1008.46
2018-05-02T08:20:35.351Z,1008.47
2018-05-02T08:22:28.277Z,1008.41
2018-05-02T08:23:28.282Z,1008.36
2018-05-02T08:25:21.207Z,1008.34
2018-05-02T08:26:21.222Z,1008.35
2018-05-02T08:28:14.148Z,1008.34
2018-05-02T08:29:14.152Z,1008.30
2018-05-02T08:31:08.058Z,1008.30
2018-05-02T08:32:08.078Z,1008.27
2018-05-02T08:34:01.026Z,1008.28
2018-05-02T08:35:01.032Z,1008.27
2018-05-02T08:36:53.956Z,1008.27
2018-05-02T08:37:53.961Z,1008.29
2018-05-02T08:39:46.871Z,1008.29
2018-05-02T08:40:46.892Z,1008.30
2018-05-02T08:42:39.835Z,1008.34
2018-05-02T08:43:39.836Z,1008.33
2018-05-02T08:45:32.753Z,1008.29
2018-05-02T08:46:32.770Z,1008.27
2018-05-02T08:48:25.697Z,1008.31
2018-05-02T08:49:25.702Z,1008.35
2018-05-02T08:51:18.609Z,1008.34
2018-05-02T08:52:18.634Z,1008.33
2018-05-02T08:54:11.768Z,1008.31
2018-05-02T08:55:11.773Z,1008.28
2018-05-02T08:57:04.700Z,1008.30
2018-05-02T08:58:04.703Z,1008.24
2018-05-02T08:59:57.619Z,1008.23
2018-05-02T09:00:57.641Z,1008.23
2018-05-02T09:02:50.571Z,1008.15
2018-05-02T09:03:50.663Z,1008.15
2018-05-02T09:05:43.495Z,1008.11
2018-05-02T09:06:43.510Z,1008.09
2018-05-02T09:08:36.443Z,1008.06
2018-05-02T09:09:36.455Z,1008.06
2018-05-02T09:11:29.359Z,1007.95
2018-05-02T09:12:29.386Z,1007.97
2018-05-02T09:14:22.444Z,1007.93
2018-05-02T09:15:22.450Z,1007.86
2018-05-02T09:17:15.385Z,1007.88
2018-05-02T09:18:15.394Z,1007.90
2018-05-02T09:20:08.298Z,1007.84
2018-05-02T09:21:08.322Z,1007.81
2018-05-02T09:23:01.253Z,1007.74
2018-05-02T09:24:01.258Z,1007.80
2018-05-02T09:25:54.170Z,1007.76
2018-05-02T09:26:54.194Z,1007.75
2018-05-02T09:28:47.125Z,1007.75
2018-05-02T09:29:47.139Z,1007.70
2018-05-02T09:31:40.046Z,1007.67
2018-05-02T09:32:40.076Z,1007.69
2018-05-02T09:34:33.014Z,1007.71
2018-05-02T09:35:33.047Z,1007.67
2018-05-02T09:37:25.948Z,1007.65
2018-05-02T09:38:25.959Z,1007.59
2018-05-02T09:40:18.866Z,1007.60
2018-05-02T09:41:18.898Z,1007.61
2018-05-02T09:43:11.817Z,1007.59
2018-05-02T09:44:11.903Z,1007.60
2018-05-02T09:46:04.737Z,1007.60
2018-05-02T09:47:04.762Z,1007.56
2018-05-02T09:48:57.697Z,1007.55
2018-05-02T09:49:57.708Z,1007.49
2018-05-02T09:51:50.613Z,1007.49
2018-05-02T09:52:50.637Z,1007.51
2018-05-02T09:54:43.571Z,1007.54
2018-05-02T09:55:43.581Z,1007.50
2018-05-02T09:57:36.507Z,1007.46
2018-05-02T09:58:36.514Z,1007.48
2018-05-02T10:00:29.431Z,1007.45
2018-05-02T10:01:29.450Z,1007.46
2018-05-02T10:03:22.380Z,1007.28
2018-05-02T10:04:22.450Z,1007.42
2018-05-02T10:06:15.308Z,1007.39
2018-05-02T10:07:15.334Z,1007.34
2018-05-02T10:09:08.262Z,1007.30
2018-05-02T10:10:08.270Z,1007.30
2018-05-02T10:12:01.182Z,1007.32
2018-05-02T10:13:01.206Z,1007.36
2018-05-02T10:14:54.147Z,1007.37
2018-05-02T10:15:54.152Z,1007.38
2018-05-02T10:17:47.079Z,1007.34
2018-05-02T10:18:47.086Z,1007.31
2018-05-02T10:20:39.996Z,1007.35
2018-05-02T10:21:40.022Z,1007.34
2018-05-02T10:23:32.949Z,1007.29
2018-05-02T10:24:32.955Z,1007.29
2018-05-02T10:26:25.869Z,1007.29
2018-05-02T10:27:25.902Z,1007.28
2018-05-02T10:29:18.825Z,1007.26
2018-05-02T10:30:18.835Z,1007.27
2018-05-02T10:32:11.751Z,1007.27
2018-05-02T10:33:11.778Z,1007.36
2018-05-02T10:35:04.710Z,1007.28
2018-05-02T10:36:04.714Z,1007.25
2018-05-02T10:37:57.641Z,1007.18
2018-05-02T10:38:57.648Z,1007.15
2018-05-02T10:40:50.732Z,1007.18
2018-05-02T10:41:50.758Z,1007.15
2018-05-02T10:43:43.694Z,1007.18
2018-05-02T10:44:43.698Z,1007.19
2018-05-02T10:46:36.613Z,1007.21
2018-05-02T10:47:36.632Z,1007.19
2018-05-02T10:49:29.567Z,1007.21
2018-05-02T10:50:29.589Z,1007.20
2018-05-02T10:52:22.481Z,1007.15
2018-05-02T10:53:22.520Z,1007.17
2018-05-02T10:55:15.435Z,1007.19
2018-05-02T10:56:15.442Z,1007.16
2018-05-02T10:58:08.370Z,1007.22
2018-05-02T10:59:08.375Z,1007.18
2018-05-02T11:01:01.302Z,1007.18
2018-05-02T11:02:01.333Z,1007.16
2018-05-02T11:03:54.244Z,1007.12
2018-05-02T11:04:54.250Z,1007.14
2018-05-02T11:06:47.321Z,1007.19
2018-05-02T11:07:47.351Z,1007.18
2018-05-02T11:09:40.278Z,1007.15
2018-05-02T11:10:40.287Z,1007.18
2018-05-02T11:12:33.194Z,1007.14
2018-05-02T11:13:33.219Z,1007.18
2018-05-02T11:15:26.300Z,1007.15
2018-05-02T11:16:26.308Z,1007.09
2018-05-02T11:18:19.236Z,1007.09
2018-05-02T11:19:19.244Z,1007.08
2018-05-02T11:21:12.155Z,1007.09
2018-05-02T11:22:12.179Z,1007.10
2018-05-02T11:24:05.110Z,1007.08
2018-05-02T11:25:05.116Z,1007.08
2018-05-02T11:26:58.027Z,1007.06
2018-05-02T11:27:58.052Z,1007.04
2018-05-02T11:29:50.989Z,1006.93
2018-05-02T11:30:50.992Z,1006.90
2018-05-02T11:32:43.909Z,1006.83
2018-05-02T11:33:43.934Z,1006.84
2018-05-02T11:35:36.862Z,1006.86
2018-05-02T11:36:36.869Z,1006.86
2018-05-02T11:38:29.809Z,1006.86
2018-05-02T11:39:29.813Z,1006.91
2018-05-02T11:41:22.724Z,1006.83
2018-05-02T11:42:22.753Z,1006.87
2018-05-02T11:44:15.676Z,1006.84
2018-05-02T11:45:15.682Z,1006.80
2018-05-02T11:47:08.592Z,1006.81
2018-05-02T11:48:08.619Z,1006.81
2018-05-02T11:50:01.553Z,1006.79
2018-05-02T11:51:01.563Z,1006.76
2018-05-02T11:52:54.473Z,1006.78
2018-05-02T11:53:54.502Z,1006.75
2018-05-02T11:55:47.430Z,1006.78
2018-05-02T11:56:47.435Z,1006.69
2018-05-02T11:58:40.366Z,1006.69
2018-05-02T11:59:40.373Z,1006.72
2018-05-02T12:01:33.286Z,1006.69
2018-05-02T12:02:33.329Z,1006.67
2018-05-02T12:04:26.244Z,1006.64
2018-05-02T12:05:26.256Z,1006.63
2018-05-02T12:07:19.370Z,1006.64
2018-05-02T12:08:19.394Z,1006.59
2018-05-02T12:10:12.337Z,1006.52
2018-05-02T12:11:12.338Z,1006.49
2018-05-02T12:13:05.251Z,1006.42
2018-05-02T12:14:05.282Z,1006.48
2018-05-02T12:15:58.473Z,1006.51
2018-05-02T12:16:58.444Z,1006.53
2018-05-02T12:18:51.389Z,1006.51
2018-05-02T12:19:51.389Z,1006.48
2018-05-02T12:21:44.324Z,1006.50
2018-05-02T12:22:44.348Z,1006.51
2018-05-02T12:24:37.288Z,1006.41
2018-05-02T12:25:37.296Z,1006.41
2018-05-02T12:27:30.211Z,1006.38
2018-05-02T12:28:30.238Z,1006.41
2018-05-02T12:30:23.168Z,1006.40
2018-05-02T12:31:23.173Z,1006.37
2018-05-02T12:33:16.089Z,1006.44
2018-05-02T12:34:16.114Z,1006.41
2018-05-02T12:36:09.045Z,1006.35
2018-05-02T12:37:09.051Z,1006.38
2018-05-02T12:39:01.998Z,1006.35
2018-05-02T12:40:01.992Z,1006.31
2018-05-02T12:41:54.908Z,1006.32
2018-05-02T12:42:54.935Z,1006.33
2018-05-02T12:44:47.862Z,1006.29
2018-05-02T12:45:47.870Z,1006.24
2018-05-02T12:47:40.784Z,1006.16
2018-05-02T12:48:40.813Z,1006.17
2018-05-02T12:50:33.749Z,1006.23
2018-05-02T12:51:33.752Z,1006.22
2018-05-02T12:53:26.669Z,1006.23
2018-05-02T12:54:26.694Z,1006.17
2018-05-02T12:56:19.889Z,1006.13
2018-05-02T12:57:19.801Z,1006.12
2018-05-02T12:59:12.744Z,1006.14
2018-05-02T13:00:12.740Z,1006.16
2018-05-02T13:02:05.659Z,1006.09
2018-05-02T13:03:05.692Z,1006.08
2018-05-02T13:04:58.647Z,1006.10
2018-05-02T13:05:58.629Z,1006.09
2018-05-02T13:07:51.551Z,1006.02
2018-05-02T13:08:51.623Z,1005.97
2018-05-02T13:10:44.513Z,1005.93
2018-05-02T13:11:44.523Z,1005.89
2018-05-02T13:13:37.435Z,1005.86
2018-05-02T13:14:37.478Z,1005.85
2018-05-02T13:16:30.398Z,1005.79
2018-05-02T13:17:30.416Z,1005.76
2018-05-02T13:19:23.523Z,1005.78
2018-05-02T13:20:23.533Z,1005.76
2018-05-02T13:22:16.479Z,1005.72
2018-05-02T13:23:16.487Z,1005.73
2018-05-02T13:25:09.427Z,1005.64
2018-05-02T13:26:09.437Z,1005.62
2018-05-02T13:28:02.356Z,1005.65
2018-05-02T13:29:02.402Z,1005.64
2018-05-02T13:30:55.549Z,1005.64
2018-05-02T13:31:55.613Z,1005.63
2018-05-02T13:33:48.477Z,1005.57
2018-05-02T13:34:48.500Z,1005.58
2018-05-02T13:36:41.439Z,1005.51
2018-05-02T13:37:41.451Z,1005.54
2018-05-02T13:39:34.395Z,1005.58
2018-05-02T13:40:34.395Z,1005.53
2018-05-02T13:42:27.308Z,1005.52
2018-05-02T13:43:27.339Z,1005.51
2018-05-02T13:45:20.270Z,1005.45
2018-05-02T13:46:20.285Z,1005.50
2018-05-02T13:48:13.237Z,1005.46
2018-05-02T13:49:13.267Z,1005.46
2018-05-02T13:51:06.156Z,1005.42
2018-05-02T13:52:06.169Z,1005.47
2018-05-02T13:53:59.082Z,1005.35
2018-05-02T13:54:59.114Z,1005.39
2018-05-02T13:56:52.099Z,1005.34
2018-05-02T13:57:52.095Z,1005.30
2018-05-02T13:59:44.971Z,1005.30
2018-05-02T14:00:45.004Z,1005.27
2018-05-02T14:02:37.931Z,1005.24
2018-05-02T14:03:37.940Z,1005.24
2018-05-02T14:05:30.877Z,1005.19
2018-05-02T14:06:30.888Z,1005.21
2018-05-02T14:08:23.902Z,1005.19
2018-05-02T14:09:23.834Z,1005.16
2018-05-02T14:11:16.823Z,1005.13
2018-05-02T14:12:16.819Z,1005.13
2018-05-02T14:14:09.698Z,1005.16
2018-05-02T14:15:09.728Z,1005.12
2018-05-02T14:17:02.659Z,1005.15
2018-05-02T14:18:02.676Z,1005.14
2018-05-02T14:19:55.731Z,1005.15
2018-05-02T14:20:55.761Z,1005.14
2018-05-02T14:22:48.919Z,1005.12
2018-05-02T14:23:48.931Z,1005.12
2018-05-02T14:25:41.949Z,1005.09
2018-05-02T14:26:41.877Z,1005.11
2018-05-02T14:28:34.799Z,1005.06
2018-05-02T14:29:34.828Z,1005.05
2018-05-02T14:31:27.985Z,1005.05
2018-05-02T14:32:28.048Z,1005.05
2018-05-02T14:34:20.914Z,1005.03
2018-05-02T14:35:20.943Z,1004.98
2018-05-02T14:37:13.881Z,1005.00
2018-05-02T14:38:13.914Z,1004.96
2018-05-02T14:40:06.805Z,1004.97
2018-05-02T14:41:06.840Z,1004.94
2018-05-02T14:42:59.769Z,1004.95
2018-05-02T14:43:59.781Z,1004.98
2018-05-02T14:45:52.777Z,1004.96
2018-05-02T14:46:52.740Z,1005.01
2018-05-02T14:48:45.645Z,1005.05
2018-05-02T14:49:45.674Z,1004.95
2018-05-02T14:51:38.639Z,1004.96
2018-05-02T14:52:38.619Z,1004.96
2018-05-02T14:54:31.545Z,1004.90
2018-05-02T14:55:31.566Z,1004.92
2018-05-02T14:57:24.499Z,1004.88
2018-05-02T14:58:24.512Z,1004.88
2018-05-02T15:00:17.468Z,1004.84
2018-05-02T15:01:17.470Z,1004.83
2018-05-02T15:03:10.582Z,1004.83
2018-05-02T15:04:10.592Z,1004.79
2018-05-02T15:06:03.527Z,1004.82
2018-05-02T15:07:03.537Z,1004.84
2018-05-02T15:08:56.455Z,1004.81
2018-05-02T15:09:56.484Z,1004.85
2018-05-02T15:11:49.498Z,1004.78
2018-05-02T15:12:49.431Z,1004.78
2018-05-02T15:14:42.351Z,1004.79
2018-05-02T15:15:42.378Z,1004.79
2018-05-02T15:17:35.310Z,1004.77
2018-05-02T15:18:35.324Z,1004.77
2018-05-02T15:20:28.239Z,1004.74
2018-05-02T15:21:28.265Z,1004.79
2018-05-02T15:23:21.258Z,1004.87
2018-05-02T15:24:21.226Z,1004.81
2018-05-02T15:26:14.136Z,1004.84
2018-05-02T15:27:14.148Z,1004.87
2018-05-02T15:29:07.567Z,1004.93
2018-05-02T15:30:14.716Z,1004.89
2018-05-02T15:32:00.738Z,1004.85
2018-05-02T15:33:00.745Z,1004.89
2018-05-02T15:34:54.168Z,1004.80
2018-05-02T15:35:54.195Z,1004.82
2018-05-02T15:37:47.115Z,1004.86
2018-05-02T15:38:47.123Z,1004.82
2018-05-02T15:40:40.038Z,1004.79
2018-05-02T15:41:40.064Z,1004.70
2018-05-02T15:43:33.159Z,1004.74
2018-05-02T15:44:33.166Z,1004.73
2018-05-02T15:46:26.330Z,1004.75
2018-05-02T15:47:26.337Z,1004.76
2018-05-02T15:49:19.506Z,1004.74
2018-05-02T15:50:19.480Z,1004.73
2018-05-02T15:52:12.631Z,1004.75
2018-05-02T15:53:12.641Z,1004.73
2018-05-02T15:55:05.558Z,1004.77
2018-05-02T15:56:05.608Z,1004.75
2018-05-02T15:57:58.533Z,1004.77
2018-05-02T15:58:58.534Z,1004.79
2018-05-02T16:00:51.939Z,1004.80
2018-05-02T16:01:51.968Z,1004.75
2018-05-02T16:03:44.900Z,1004.74
2018-05-02T16:04:44.913Z,1004.72
2018-05-02T16:06:37.840Z,1004.71
2018-05-02T16:07:37.848Z,1004.69
2018-05-02T16:09:30.771Z,1004.64
2018-05-02T16:10:30.799Z,1004.65
2018-05-02T16:12:23.791Z,1004.64
2018-05-02T16:13:23.761Z,1004.63
2018-05-02T16:15:16.653Z,1004.60
2018-05-02T16:16:16.682Z,1004.57
2018-05-02T16:18:09.829Z,1004.61
2018-05-02T16:19:09.837Z,1004.58
2018-05-02T16:21:02.973Z,1004.63
2018-05-02T16:22:03.000Z,1004.59
2018-05-02T16:23:55.930Z,1004.62
2018-05-02T16:24:55.941Z,1004.60
2018-05-02T16:26:48.871Z,1004.61
2018-05-02T16:27:48.967Z,1004.56
2018-05-02T16:29:41.793Z,1004.53
2018-05-02T16:30:41.820Z,1004.57
2018-05-02T16:32:34.753Z,1004.51
2018-05-02T16:33:34.762Z,1004.56
2018-05-02T16:35:27.673Z,1004.54
2018-05-02T16:36:27.700Z,1004.59
2018-05-02T16:38:20.635Z,1004.51
2018-05-02T16:39:20.647Z,1004.53
2018-05-02T16:41:13.749Z,1004.52
2018-05-02T16:42:20.901Z,1004.55
2018-05-02T16:44:06.925Z,1004.53
2018-05-02T16:45:06.936Z,1004.57
2018-05-02T16:46:59.868Z,1004.56
2018-05-02T16:47:59.878Z,1004.57
2018-05-02T16:49:52.790Z,1004.57
2018-05-02T16:50:52.816Z,1004.54
2018-05-02T16:52:45.890Z,1004.56
2018-05-02T16:53:45.898Z,1004.57
2018-05-02T16:55:38.814Z,1004.57
2018-05-02T16:56:38.988Z,1004.58
2018-05-02T16:58:31.771Z,1004.56
2018-05-02T16:59:31.784Z,1004.55
2018-05-02T17:01:24.698Z,1004.55
2018-05-02T17:02:24.726Z,1004.62
2018-05-02T17:04:17.747Z,1004.57
2018-05-02T17:05:17.661Z,1004.58
2018-05-02T17:07:10.596Z,1004.59
2018-05-02T17:08:10.612Z,1004.57
2018-05-02T17:10:03.517Z,1004.57
2018-05-02T17:11:03.548Z,1004.57
2018-05-02T17:12:56.473Z,1004.60
2018-05-02T17:13:56.480Z,1004.56
2018-05-02T17:15:49.398Z,1004.56
2018-05-02T17:16:49.487Z,1004.58
2018-05-02T17:18:42.354Z,1004.53
2018-05-02T17:19:42.367Z,1004.53
2018-05-02T17:21:35.408Z,1004.52
2018-05-02T17:22:35.433Z,1004.52
2018-05-02T17:24:28.373Z,1004.54
2018-05-02T17:25:28.375Z,1004.54
2018-05-02T17:27:21.304Z,1004.55